Time;durP1;ratioP1;P1;durP2;ratioP2;P2;SDS_P1;SDS_P2;PMS_P1;PMS_P2;Temp;Humidity;BMP_temperature;BMP_pressure;BME280_temperature;BME280_humidity;BME280_pressure;Samples;Min_cycle;Max_cycle;Signal;HPM_P1;HPM_P2
2023/10/14 00:01:14;;;;;;;14.80;6.05;;;;;22.30;97694.00;;;;5051729;28;20651;-64
2023/10/14 00:03:45;;;;;;;12.48;5.35;;;;;22.30;97677.00;;;;5051344;28;20076;-64
2023/10/14 00:06:13;;;;;;;14.60;5.32;;;;;22.30;97669.00;;;;5054102;28;20040;-65
2023/10/14 00:08:48;;;;;;;16.25;5.50;;;;;22.20;97674.00;;;;5054928;28;20037;-64
2023/10/14 00:11:15;;;;;;;13.23;6.07;;;;;22.20;97676.00;;;;5055100;28;20063;-63
2023/10/14 00:13:49;;;;;;;14.10;6.10;;;;;22.20;97669.00;;;;5054149;28;20087;-63
2023/10/14 00:16:35;;;;;;;10.40;4.90;;;;;22.20;97678.00;;;;5054849;28;20083;-64
2023/10/14 00:19:09;;;;;;;12.88;5.95;;;;;22.10;97665.00;;;;5054678;28;20045;-64
2023/10/14 00:21:36;;;;;;;13.20;5.22;;;;;22.10;97668.00;;;;5054704;28;20076;-64
2023/10/14 00:24:06;;;;;;;10.05;5.32;;;;;22.10;97673.00;;;;5054108;28;20123;-64
2023/10/14 00:26:33;;;;;;;8.77;5.28;;;;;22.10;97672.00;;;;5053289;28;20041;-65
2023/10/14 00:29:18;;;;;;;9.60;5.53;;;;;22.10;97675.00;;;;5054471;28;20502;-64
2023/10/14 00:31:46;;;;;;;19.83;5.53;;;;;22.10;97669.00;;;;5053230;28;20053;-65
2023/10/14 00:34:14;;;;;;;11.50;4.95;;;;;22.20;97680.00;;;;5052668;28;20464;-65
2023/10/14 00:36:42;;;;;;;16.25;6.10;;;;;22.10;97649.00;;;;5052968;28;20045;-64
2023/10/14 00:39:12;;;;;;;11.23;5.82;;;;;22.10;97664.00;;;;5053153;28;20044;-64
2023/10/14 00:41:42;;;;;;;10.32;5.15;;;;;22.10;97664.00;;;;5053064;28;20049;-65
2023/10/14 00:44:10;;;;;;;11.93;5.60;;;;;22.10;97680.00;;;;5052336;28;20099;-68
2023/10/14 00:46:42;;;;;;;10.73;5.20;;;;;22.10;97668.00;;;;5052853;28;20485;-64
2023/10/14 00:49:11;;;;;;;9.95;5.53;;;;;22.10;97656.00;;;;5054291;28;20203;-64
2023/10/14 00:51:43;;;;;;;9.32;5.32;;;;;22.10;97666.00;;;;5053813;28;20139;-65
2023/10/14 00:54:11;;;;;;;8.20;5.55;;;;;22.20;97653.00;;;;5036998;28;20049;-64
2023/10/14 00:56:42;;;;;;;11.10;5.40;;;;;22.20;97660.00;;;;5052849;28;20077;-64
2023/10/14 00:59:09;;;;;;;13.52;5.95;;;;;22.20;97653.00;;;;5052785;28;20064;-64
2023/10/14 01:04:23;;;;;;;12.38;5.57;;;;;22.20;97664.00;;;;5052307;28;20102;-64
2023/10/14 01:10:12;;;;;;;9.13;5.68;;;;;22.20;97658.00;;;;5053846;28;20131;-64
2023/10/14 01:12:26;;;;;;;15.15;6.50;;;;;22.20;97661.00;;;;5047211;28;20497;-65
2023/10/14 01:14:54;;;;;;;9.93;6.28;;;;;22.20;97640.00;;;;5052048;28;20069;-64
2023/10/14 01:19:54;;;;;;;10.35;5.85;;;;;22.20;97636.00;;;;5053520;28;20099;-65
2023/10/14 01:22:21;;;;;;;9.93;5.72;;;;;22.20;97639.00;;;;5052208;28;20498;-65
2023/10/14 01:24:48;;;;;;;8.57;5.75;;;;;22.20;97646.00;;;;5051688;28;20069;-65
2023/10/14 01:27:16;;;;;;;9.65;5.80;;;;;22.10;97633.00;;;;5053384;28;20044;-65
2023/10/14 01:29:44;;;;;;;9.90;6.35;;;;;22.10;97632.00;;;;5053391;28;20498;-65
2023/10/14 01:32:26;;;;;;;10.98;6.15;;;;;22.20;97631.00;;;;5053383;28;20123;-65
2023/10/14 01:35:00;;;;;;;10.07;5.93;;;;;22.10;97631.00;;;;5051479;28;20128;-64
2023/10/14 01:37:34;;;;;;;10.07;5.90;;;;;22.10;97629.00;;;;5051962;28;20045;-62
2023/10/14 01:42:47;;;;;;;11.30;5.80;;;;;22.00;97640.00;;;;5051989;28;20057;-64
2023/10/14 01:45:20;;;;;;;11.38;5.63;;;;;22.00;97630.00;;;;5052565;28;20041;-64
2023/10/14 01:48:06;;;;;;;11.95;6.40;;;;;22.00;97617.00;;;;5053031;28;20099;-63
2023/10/14 01:50:33;;;;;;;9.32;5.25;;;;;22.00;97627.00;;;;5053120;28;20485;-63
2023/10/14 01:53:09;;;;;;;20.05;6.07;;;;;21.90;97630.00;;;;5051762;28;20098;-63
2023/10/14 01:55:41;;;;;;;9.20;5.38;;;;;21.90;97615.00;;;;5051083;28;20049;-64
2023/10/14 01:58:17;;;;;;;15.57;5.65;;;;;21.90;97619.00;;;;5051401;28;20604;-63
2023/10/14 02:00:46;;;;;;;14.38;5.55;;;;;21.90;97633.00;;;;5051497;28;20052;-64
2023/10/14 02:03:15;;;;;;;12.80;5.80;;;;;21.80;97624.00;;;;5052849;28;20037;-63
2023/10/14 02:05:42;;;;;;;16.55;6.30;;;;;21.80;97618.00;;;;5051992;28;20073;-64
2023/10/14 02:08:16;;;;;;;10.90;4.95;;;;;21.80;97629.00;;;;5052420;28;20045;-63
2023/10/14 02:10:47;;;;;;;19.38;5.70;;;;;21.80;97615.00;;;;5051431;28;20087;-63
2023/10/14 02:13:17;;;;;;;16.00;6.07;;;;;21.80;97610.00;;;;5051429;28;20135;-63
2023/10/14 02:15:47;;;;;;;18.55;6.18;;;;;21.80;97606.00;;;;5052024;28;20048;-64
2023/10/14 02:18:16;;;;;;;11.93;5.63;;;;;21.80;97607.00;;;;5051276;28;20135;-63
2023/10/14 02:21:04;;;;;;;12.57;5.80;;;;;21.80;97599.00;;;;5052667;28;20398;-63
2023/10/14 02:23:45;;;;;;;14.25;5.60;;;;;21.70;97607.00;;;;5052148;28;20045;-62
2023/10/14 02:26:24;;;;;;;12.40;5.28;;;;;21.70;97595.00;;;;5051206;28;20437;-64
2023/10/14 02:28:52;;;;;;;11.82;5.93;;;;;21.70;97590.00;;;;5052104;28;20037;-63
2023/10/14 02:31:35;;;;;;;15.93;6.07;;;;;21.70;97601.00;;;;5052382;28;20446;-63
2023/10/14 02:34:08;;;;;;;16.73;6.10;;;;;21.70;97584.00;;;;5051814;28;20049;-64
2023/10/14 02:36:48;;;;;;;17.98;6.18;;;;;21.60;97597.00;;;;5050871;28;20057;-63
2023/10/14 02:39:17;;;;;;;15.40;6.28;;;;;21.60;97601.00;;;;5052244;28;20079;-63
2023/10/14 02:41:45;;;;;;;13.95;5.93;;;;;21.60;97595.00;;;;5050888;28;20098;-63
2023/10/14 02:44:25;;;;;;;11.93;5.47;;;;;21.60;97589.00;;;;5050273;28;20052;-62
2023/10/14 02:46:54;;;;;;;12.85;5.68;;;;;21.60;97607.00;;;;5052049;28;20055;-63
2023/10/14 02:49:25;;;;;;;14.68;5.78;;;;;21.60;97601.00;;;;5052006;28;20048;-63
2023/10/14 02:51:52;;;;;;;19.05;6.82;;;;;21.60;97609.00;;;;5051964;28;20052;-63
2023/10/14 02:54:28;;;;;;;15.48;5.93;;;;;21.60;97616.00;;;;5051531;28;20041;-62
2023/10/14 02:57:00;;;;;;;16.92;6.28;;;;;21.50;97623.00;;;;5052078;28;20124;-63
2023/10/14 03:07:23;;;;;;;12.52;5.80;;;;;21.40;97641.00;;;;5051866;28;20047;-63
2023/10/14 03:09:51;;;;;;;;;;;;;21.40;97628.00;;;;5051044;28;20484;-64
2023/10/14 03:12:23;;;;;;;13.70;5.45;;;;;21.30;97641.00;;;;5052187;28;19982;-63
2023/10/14 03:14:52;;;;;;;17.73;5.93;;;;;21.30;97653.00;;;;5051652;28;20160;-63
2023/10/14 03:17:42;;;;;;;10.98;5.65;;;;;21.30;97641.00;;;;5052099;28;20037;-63
2023/10/14 03:22:55;;;;;;;12.82;5.05;;;;;21.20;97637.00;;;;5051873;28;20055;-64
2023/10/14 03:25:23;;;;;;;16.73;5.07;;;;;21.10;97640.00;;;;5051076;28;20051;-64
2023/10/14 03:28:08;;;;;;;13.20;5.55;;;;;21.10;97649.00;;;;5051542;28;20452;-63
2023/10/14 03:30:40;;;;;;;11.60;4.80;;;;;21.10;97660.00;;;;5050531;28;20060;-63
2023/10/14 03:33:10;;;;;;;12.50;3.70;;;;;21.20;97655.00;;;;5051769;28;20199;-64
2023/10/14 03:35:37;;;;;;;7.32;3.65;;;;;21.10;97664.00;;;;5049877;28;20288;-64
2023/10/14 03:38:25;;;;;;;10.30;3.85;;;;;21.10;97657.00;;;;5051499;28;20041;-63
2023/10/14 03:41:03;;;;;;;12.18;3.25;;;;;20.90;97683.00;;;;5053911;28;20044;-64
2023/10/14 03:43:34;;;;;;;5.25;2.78;;;;;20.80;97674.00;;;;5054748;28;20045;-65
2023/10/14 03:46:11;;;;;;;8.05;3.28;;;;;20.60;97685.00;;;;5055549;28;20068;-63
2023/10/14 03:48:48;;;;;;;8.73;3.22;;;;;20.50;97681.00;;;;5055151;28;20095;-64
2023/10/14 03:51:35;;;;;;;8.45;2.30;;;;;20.40;97676.00;;;;5054130;28;20052;-63
2023/10/14 03:54:08;;;;;;;5.63;2.10;;;;;20.30;97677.00;;;;5054659;28;20128;-64
2023/10/14 03:56:37;;;;;;;4.43;1.95;;;;;20.30;97671.00;;;;5055378;28;20452;-63
2023/10/14 03:59:03;;;;;;;9.10;2.20;;;;;20.30;97681.00;;;;5055307;28;20043;-62
2023/10/14 04:04:29;;;;;;;6.45;1.92;;;;;20.30;97674.00;;;;5053217;28;20053;-63
2023/10/14 04:09:24;;;;;;;5.43;1.83;;;;;20.20;97675.00;;;;5054882;28;20041;-63
2023/10/14 04:11:55;;;;;;;4.80;1.45;;;;;20.20;97688.00;;;;5053711;28;20045;-63
2023/10/14 04:14:27;;;;;;;4.30;1.48;;;;;20.20;97682.00;;;;5053217;28;20044;-62
2023/10/14 04:19:45;;;;;;;9.65;1.20;;;;;20.20;97690.00;;;;5054713;28;20047;-64
2023/10/14 04:22:38;;;;;;;4.20;0.90;;;;;20.10;97686.00;;;;5053587;28;20079;-63
2023/10/14 04:25:15;;;;;;;3.85;0.98;;;;;20.10;97686.00;;;;5054141;28;20079;-63
2023/10/14 04:35:38;;;;;;;4.20;0.90;;;;;20.00;97701.00;;;;5054102;28;20037;-63
2023/10/14 04:38:16;;;;;;;3.10;0.90;;;;;20.10;97706.00;;;;5054690;28;20045;-65
2023/10/14 04:40:53;;;;;;;3.20;0.80;;;;;20.10;97704.00;;;;5054580;28;20095;-64
2023/10/14 04:44:11;;;;;;;2.30;0.70;;;;;20.00;97708.00;;;;5054525;28;20041;-64
2023/10/14 04:48:59;;;;;;;3.30;1.08;;;;;19.90;97714.00;;;;5054254;28;20040;-63
2023/10/14 04:51:36;;;;;;;1.38;0.82;;;;;19.90;97713.00;;;;5054332;28;20056;-64
2023/10/14 04:54:09;;;;;;;2.38;0.70;;;;;19.90;97718.00;;;;5052518;28;20226;-63
2023/10/14 04:56:36;;;;;;;2.10;0.77;;;;;19.80;97726.00;;;;5055283;28;20048;-64
2023/10/14 04:59:05;;;;;;;4.80;0.80;;;;;19.80;97727.00;;;;5054891;28;20129;-64
2023/10/14 05:01:32;;;;;;;3.13;0.60;;;;;19.90;97732.00;;;;5053142;28;20059;-65
2023/10/14 05:03:59;;;;;;;2.95;0.60;;;;;19.90;97738.00;;;;5053491;28;20045;-63
2023/10/14 05:06:29;;;;;;;1.80;0.50;;;;;19.90;97733.00;;;;5054173;28;20047;-65
2023/10/14 05:08:56;;;;;;;5.35;0.77;;;;;19.80;97742.00;;;;5053969;28;20040;-64
2023/10/14 05:11:25;;;;;;;0.80;0.50;;;;;19.80;97747.00;;;;5052787;28;20444;-63
2023/10/14 05:14:07;;;;;;;2.53;0.88;;;;;19.80;97746.00;;;;5053390;28;20120;-64
2023/10/14 05:16:53;;;;;;;4.45;0.90;;;;;19.80;97772.00;;;;5053982;28;20041;-63
2023/10/14 05:19:30;;;;;;;1.00;0.63;;;;;19.80;97761.00;;;;5053798;28;20052;-64
2023/10/14 05:22:03;;;;;;;1.63;0.55;;;;;19.80;97765.00;;;;5053998;28;20040;-63
2023/10/14 05:24:31;;;;;;;2.63;0.70;;;;;19.80;97776.00;;;;5051928;28;20045;-64
2023/10/14 05:27:01;;;;;;;3.17;0.88;;;;;19.80;97776.00;;;;5053701;28;20098;-63
2023/10/14 05:29:28;;;;;;;2.90;0.75;;;;;19.70;97782.00;;;;5053568;28;20409;-64
2023/10/14 05:32:10;;;;;;;1.70;0.52;;;;;19.70;97792.00;;;;5053598;28;20045;-64
2023/10/14 05:34:39;;;;;;;2.58;0.77;;;;;19.60;97796.00;;;;5053072;28;20544;-63
2023/10/14 05:37:11;;;;;;;1.23;0.63;;;;;19.60;97801.00;;;;5053631;28;20535;-65
2023/10/14 05:39:39;;;;;;;2.15;0.68;;;;;19.50;97816.00;;;;5052135;28;20139;-63
2023/10/14 05:42:16;;;;;;;3.05;0.90;;;;;19.40;97828.00;;;;5053300;28;20037;-65
2023/10/14 05:44:47;;;;;;;5.20;0.85;;;;;19.30;97839.00;;;;5052816;28;20033;-64
2023/10/14 05:47:17;;;;;;;2.65;0.52;;;;;19.20;97834.00;;;;5053231;28;20159;-63
2023/10/14 05:49:44;;;;;;;1.10;0.55;;;;;19.00;97850.00;;;;5053346;28;20051;-64
2023/10/14 05:52:11;;;;;;;1.58;0.65;;;;;18.80;97849.00;;;;5052129;28;20063;-64
2023/10/14 05:54:39;;;;;;;1.55;0.60;;;;;18.70;97855.00;;;;5052623;28;20439;-64
2023/10/14 05:57:08;;;;;;;1.55;0.60;;;;;18.60;97858.00;;;;5053043;28;20128;-64
2023/10/14 05:59:36;;;;;;;1.80;0.57;;;;;18.60;97875.00;;;;5053473;28;20099;-64
2023/10/14 06:02:08;;;;;;;0.63;0.50;;;;;18.50;97888.00;;;;5053990;28;20049;-64
2023/10/14 06:04:41;;;;;;;1.20;0.40;;;;;18.40;97897.00;;;;5053635;28;20456;-65
2023/10/14 06:07:09;;;;;;;1.05;0.60;;;;;18.40;97901.00;;;;5054705;28;20041;-64
2023/10/14 06:09:36;;;;;;;1.27;0.50;;;;;18.30;97911.00;;;;5052987;28;20049;-63
2023/10/14 06:12:12;;;;;;;0.73;0.55;;;;;18.30;97906.00;;;;5053280;28;20072;-65
2023/10/14 06:14:41;;;;;;;0.63;0.45;;;;;18.30;97908.00;;;;5052463;28;20048;-64
2023/10/14 06:17:08;;;;;;;1.63;0.70;;;;;18.30;97912.00;;;;5052354;28;20047;-65
2023/10/14 06:19:36;;;;;;;1.27;0.50;;;;;18.30;97918.00;;;;5052695;28;20553;-65
2023/10/14 06:22:03;;;;;;;1.33;0.55;;;;;18.40;97919.00;;;;5052875;28;20041;-65
2023/10/14 06:24:30;;;;;;;3.17;0.95;;;;;18.40;97931.00;;;;5034155;28;20049;-65
2023/10/14 06:27:09;;;;;;;0.52;0.40;;;;;18.40;97930.00;;;;5034866;28;20521;-65
2023/10/14 06:29:37;;;;;;;1.52;0.43;;;;;18.40;97944.00;;;;5051417;28;20045;-64
2023/10/14 06:32:04;;;;;;;1.25;0.50;;;;;18.30;97939.00;;;;5052589;28;20052;-64
2023/10/14 06:34:49;;;;;;;0.88;0.50;;;;;18.30;97951.00;;;;5051926;28;20045;-64
2023/10/14 06:37:16;;;;;;;0.90;0.60;;;;;18.40;97946.00;;;;5052823;28;20041;-63
2023/10/14 06:39:43;;;;;;;0.68;0.50;;;;;18.40;97957.00;;;;5052486;28;20040;-64
2023/10/14 06:42:11;;;;;;;1.77;0.68;;;;;18.40;97954.00;;;;5052356;28;20072;-64
2023/10/14 06:44:45;;;;;;;1.77;0.70;;;;;18.40;97964.00;;;;5050415;28;20057;-64
2023/10/14 06:47:12;;;;;;;2.13;0.65;;;;;18.40;97966.00;;;;5052465;28;20048;-65
2023/10/14 06:49:41;;;;;;;1.38;0.75;;;;;18.40;97970.00;;;;5052240;28;20072;-65
2023/10/14 06:52:11;;;;;;;1.63;0.55;;;;;18.40;97976.00;;;;5051191;28;20052;-64
2023/10/14 06:54:41;;;;;;;0.70;0.70;;;;;18.50;97986.00;;;;5050698;28;20045;-64
2023/10/14 06:57:08;;;;;;;1.33;0.60;;;;;18.50;97993.00;;;;5052175;28;20048;-66
2023/10/14 06:59:36;;;;;;;1.58;0.50;;;;;18.60;97996.00;;;;5052338;28;20045;-63
2023/10/14 07:02:03;;;;;;;0.47;0.43;;;;;18.60;98009.00;;;;5052501;28;20110;-64
2023/10/14 07:04:29;;;;;;;1.95;0.70;;;;;18.70;98000.00;;;;5051768;28;20233;-63
2023/10/14 07:06:58;;;;;;;4.65;0.95;;;;;18.70;98009.00;;;;5050975;28;20047;-65
2023/10/14 07:09:27;;;;;;;3.05;0.75;;;;;18.90;98010.00;;;;5051194;28;20509;-64
2023/10/14 07:11:55;;;;;;;0.95;0.85;;;;;18.90;98024.00;;;;5052192;28;20041;-65
2023/10/14 07:14:23;;;;;;;4.45;0.82;;;;;18.90;98022.00;;;;5052615;28;20077;-65
2023/10/14 07:16:50;;;;;;;1.40;0.75;;;;;18.90;98030.00;;;;5056189;28;20045;-65
2023/10/14 07:19:20;;;;;;;4.22;0.95;;;;;18.90;98044.00;;;;5056336;28;20036;-65
2023/10/14 07:21:46;;;;;;;0.90;0.70;;;;;18.90;98037.00;;;;5056116;28;20087;-65
2023/10/14 07:24:14;;;;;;;0.90;0.70;;;;;18.90;98060.00;;;;5055352;28;20126;-65
2023/10/14 07:26:41;;;;;;;1.48;0.88;;;;;18.90;98064.00;;;;5056129;28;20068;-65
2023/10/14 07:29:08;;;;;;;1.35;1.10;;;;;18.90;98057.00;;;;5056008;28;20041;-65
2023/10/14 07:31:37;;;;;;;1.55;1.00;;;;;19.00;98061.00;;;;5055954;28;20114;-65
2023/10/14 07:34:08;;;;;;;2.55;0.90;;;;;19.00;98076.00;;;;5055043;28;20037;-64
2023/10/14 07:36:35;;;;;;;1.00;0.90;;;;;19.00;98069.00;;;;5055776;28;20051;-64
2023/10/14 07:39:27;;;;;;;1.33;0.70;;;;;19.00;98067.00;;;;5056149;28;20056;-65
2023/10/14 07:41:52;;;;;;;2.42;0.90;;;;;19.10;98067.00;;;;5055859;28;20068;-64
2023/10/14 07:44:19;;;;;;;1.75;0.85;;;;;19.10;98068.00;;;;5054221;28;20049;-63
2023/10/14 07:46:47;;;;;;;4.28;0.85;;;;;19.30;98078.00;;;;5055856;28;20045;-64
2023/10/14 07:49:16;;;;;;;2.78;0.70;;;;;19.40;98081.00;;;;5055841;28;20087;-65
2023/10/14 07:51:43;;;;;;;0.20;0.20;;;;;19.40;98078.00;;;;5056514;28;20552;-64
2023/10/14 07:54:12;;;;;;;0.45;0.30;;;;;19.40;98089.00;;;;5055927;28;20442;-64
2023/10/14 07:56:42;;;;;;;0.20;0.20;;;;;19.40;98087.00;;;;5055934;28;20075;-64
2023/10/14 07:59:10;;;;;;;0.68;0.30;;;;;19.30;98099.00;;;;5056307;28;20045;-64
2023/10/14 08:01:38;;;;;;;0.30;0.30;;;;;19.30;98095.00;;;;5056063;28;20079;-64
2023/10/14 08:04:13;;;;;;;0.52;0.20;;;;;19.30;98105.00;;;;5054973;28;20095;-63
2023/10/14 08:06:41;;;;;;;2.45;0.40;;;;;19.20;98105.00;;;;5056387;28;20076;-63
2023/10/14 08:09:23;;;;;;;1.67;0.45;;;;;19.10;98107.00;;;;5054911;28;20045;-63
2023/10/14 08:11:51;;;;;;;0.30;0.30;;;;;19.00;98116.00;;;;5056630;28;20063;-64
2023/10/14 08:14:18;;;;;;;0.40;0.32;;;;;18.80;98114.00;;;;5056174;28;20123;-64
2023/10/14 08:16:48;;;;;;;0.73;0.40;;;;;18.70;98110.00;;;;5056880;28;20489;-63
2023/10/14 08:19:16;;;;;;;0.43;0.35;;;;;18.70;98121.00;;;;5061097;28;20055;-64
2023/10/14 08:21:43;;;;;;;1.13;0.40;;;;;18.60;98114.00;;;;5074111;28;20045;-64
2023/10/14 08:24:14;;;;;;;0.45;0.32;;;;;18.50;98119.00;;;;5073286;28;20060;-64
2023/10/14 08:26:41;;;;;;;0.30;0.30;;;;;18.60;98122.00;;;;5070324;28;20148;-63
2023/10/14 08:29:08;;;;;;;0.45;0.30;;;;;18.60;98137.00;;;;5067776;28;20091;-64
2023/10/14 08:31:37;;;;;;;0.57;0.38;;;;;18.60;98141.00;;;;5039478;28;20445;-64
2023/10/14 08:34:07;;;;;;;0.55;0.30;;;;;18.70;98144.00;;;;5056490;28;20040;-65
2023/10/14 08:36:34;;;;;;;0.20;0.20;;;;;18.90;98152.00;;;;5055978;28;20112;-65
2023/10/14 08:39:00;;;;;;;0.30;0.30;;;;;19.00;98163.00;;;;5057167;28;20037;-65
2023/10/14 08:41:33;;;;;;;1.00;0.32;;;;;19.00;98160.00;;;;5056797;28;20107;-65
2023/10/14 08:44:08;;;;;;;0.30;0.30;;;;;18.90;98172.00;;;;5054482;28;20484;-65
2023/10/14 08:46:39;;;;;;;0.50;0.50;;;;;18.90;98158.00;;;;5056578;28;20456;-65
2023/10/14 08:49:08;;;;;;;0.75;0.40;;;;;18.90;98166.00;;;;5056739;28;20128;-65
2023/10/14 08:51:37;;;;;;;0.32;0.32;;;;;18.80;98171.00;;;;5056935;28;20047;-65
2023/10/14 08:54:23;;;;;;;0.22;0.20;;;;;18.90;98163.00;;;;5056471;28;20071;-65
2023/10/14 08:56:51;;;;;;;0.30;0.30;;;;;18.90;98162.00;;;;5057778;28;20494;-64
2023/10/14 08:59:18;;;;;;;1.00;0.80;;;;;19.00;98165.00;;;;5041721;28;20041;-65
2023/10/14 09:01:51;;;;;;;0.30;0.30;;;;;19.00;98173.00;;;;5039488;28;20133;-65
2023/10/14 09:04:28;;;;;;;;;;;;;18.90;98172.00;;;;5040453;28;20059;-65
2023/10/14 09:07:12;;;;;;;0.40;0.40;;;;;19.00;98176.00;;;;5038744;28;20599;-65
2023/10/14 09:09:39;;;;;;;0.30;0.30;;;;;19.00;98184.00;;;;5039056;28;20045;-65
2023/10/14 09:12:10;;;;;;;0.30;0.30;;;;;19.00;98182.00;;;;5036733;28;20566;-64
2023/10/14 09:14:39;;;;;;;0.73;0.60;;;;;18.90;98186.00;;;;5035776;28;20116;-64
2023/10/14 09:17:09;;;;;;;0.43;0.43;;;;;18.90;98181.00;;;;5033543;28;20046;-64
2023/10/14 09:19:43;;;;;;;0.95;0.47;;;;;18.90;98185.00;;;;5034130;28;20065;-65
2023/10/14 09:22:21;;;;;;;0.50;0.50;;;;;18.90;98190.00;;;;5035110;28;20087;-63
2023/10/14 09:24:50;;;;;;;0.93;0.50;;;;;19.00;98176.00;;;;5034817;28;20082;-63
2023/10/14 09:27:18;;;;;;;0.25;0.25;;;;;19.20;98175.00;;;;5033451;28;20053;-63
2023/10/14 09:29:44;;;;;;;0.47;0.30;;;;;19.40;98169.00;;;;5035087;28;20076;-63
2023/10/14 09:32:12;;;;;;;0.40;0.40;;;;;19.30;98177.00;;;;5034705;28;20111;-63
2023/10/14 09:34:41;;;;;;;0.30;0.30;;;;;19.10;98192.00;;;;5033488;28;20495;-63
2023/10/14 09:37:10;;;;;;;0.60;0.50;;;;;18.90;98198.00;;;;5033783;28;20048;-63
2023/10/14 09:39:41;;;;;;;0.60;0.50;;;;;18.70;98196.00;;;;5035739;28;20092;-63
2023/10/14 09:42:12;;;;;;;0.63;0.55;;;;;18.50;98213.00;;;;5035194;28;20075;-64
2023/10/14 09:44:42;;;;;;;1.10;0.50;;;;;18.30;98216.00;;;;5033025;28;20163;-63
2023/10/14 09:47:19;;;;;;;1.17;0.52;;;;;18.30;98210.00;;;;5034812;28;20060;-63
2023/10/14 09:49:47;;;;;;;2.50;0.60;;;;;18.20;98207.00;;;;5033008;28;20045;-65
2023/10/14 09:52:14;;;;;;;1.20;0.68;;;;;18.30;98210.00;;;;5033822;28;20065;-67
2023/10/14 09:54:42;;;;;;;1.13;0.68;;;;;18.60;98206.00;;;;5033302;28;20128;-65
2023/10/14 09:57:10;;;;;;;1.02;0.60;;;;;18.90;98202.00;;;;5032349;28;20050;-64
2023/10/14 09:59:40;;;;;;;0.60;0.60;;;;;19.00;98199.00;;;;5033706;28;20084;-64
2023/10/14 10:02:09;;;;;;;3.33;1.13;;;;;19.20;98211.00;;;;5015872;28;20202;-66
2023/10/14 10:04:42;;;;;;;1.20;0.70;;;;;19.30;98208.00;;;;5033164;28;20656;-66
2023/10/14 10:07:41;;;;;;;0.82;0.75;;;;;19.30;98208.00;;;;5033861;28;20406;-66
2023/10/14 10:10:22;;;;;;;3.55;1.05;;;;;19.30;98216.00;;;;5033273;28;20110;-66
2023/10/14 10:12:53;;;;;;;1.23;0.90;;;;;19.20;98221.00;;;;5033428;28;20069;-66
2023/10/14 10:15:20;;;;;;;1.75;1.02;;;;;19.10;98225.00;;;;5033047;28;20506;-66
2023/10/14 10:18:05;;;;;;;1.95;0.63;;;;;19.10;98220.00;;;;5031971;28;20047;-65
2023/10/14 10:20:36;;;;;;;1.63;0.80;;;;;19.20;98225.00;;;;5033306;28;20124;-66
2023/10/14 10:23:06;;;;;;;2.90;0.88;;;;;19.30;98226.00;;;;5033300;28;20052;-66
2023/10/14 10:25:37;;;;;;;2.17;1.00;;;;;19.30;98234.00;;;;5032852;28;20136;-66
2023/10/14 10:28:28;;;;;;;1.55;0.77;;;;;19.40;98229.00;;;;5031688;28;20510;-66
2023/10/14 10:30:58;;;;;;;2.92;1.13;;;;;19.40;98240.00;;;;5033153;28;20041;-66
2023/10/14 10:33:53;;;;;;;2.38;1.38;;;;;19.50;98247.00;;;;5033576;28;20041;-66
2023/10/14 10:36:28;;;;;;;2.35;1.13;;;;;19.40;98240.00;;;;5033187;28;20041;-66
2023/10/14 10:39:05;;;;;;;3.22;1.17;;;;;19.40;98247.00;;;;5033037;28;20064;-66
2023/10/14 10:41:36;;;;;;;2.45;0.80;;;;;19.30;98251.00;;;;5033009;28;20132;-65
2023/10/14 10:44:05;;;;;;;4.85;1.35;;;;;19.30;98238.00;;;;5031311;28;20041;-62
2023/10/14 10:46:42;;;;;;;5.47;1.50;;;;;19.40;98244.00;;;;5031924;28;20128;-62
2023/10/14 10:49:11;;;;;;;5.15;1.55;;;;;19.40;98255.00;;;;5031563;28;20052;-63
2023/10/14 10:51:50;;;;;;;5.22;1.60;;;;;19.40;98246.00;;;;5033123;28;20510;-63
2023/10/14 10:54:22;;;;;;;4.80;1.58;;;;;19.40;98264.00;;;;5030844;28;20045;-63
2023/10/14 10:56:48;;;;;;;2.95;1.52;;;;;19.40;98255.00;;;;5031055;28;20050;-64
2023/10/14 10:59:36;;;;;;;3.42;1.73;;;;;19.40;98264.00;;;;5032889;28;20053;-64
2023/10/14 11:02:11;;;;;;;4.63;1.75;;;;;19.40;98261.00;;;;5032569;28;20107;-62
2023/10/14 11:04:41;;;;;;;3.30;1.85;;;;;19.40;98261.00;;;;5030969;28;20051;-62
2023/10/14 11:07:12;;;;;;;5.63;1.42;;;;;19.30;98255.00;;;;5030944;28;20049;-62
2023/10/14 11:09:39;;;;;;;4.35;2.50;;;;;19.40;98261.00;;;;5032351;28;20042;-63
2023/10/14 11:12:12;;;;;;;4.50;2.45;;;;;19.30;98262.00;;;;5030976;28;20056;-63
2023/10/14 11:14:39;;;;;;;6.78;1.67;;;;;19.30;98266.00;;;;5031627;28;20132;-62
2023/10/14 11:17:07;;;;;;;4.50;1.83;;;;;19.30;98262.00;;;;5031896;28;20115;-63
2023/10/14 11:19:34;;;;;;;6.03;2.00;;;;;19.30;98279.00;;;;5030684;28;20108;-64
2023/10/14 11:22:03;;;;;;;7.90;1.67;;;;;19.20;98293.00;;;;5030902;28;20069;-64
2023/10/14 11:24:30;;;;;;;4.55;1.80;;;;;19.10;98281.00;;;;5031757;28;20045;-64
2023/10/14 11:26:59;;;;;;;6.00;2.70;;;;;18.90;98301.00;;;;5030870;28;20037;-63
2023/10/14 11:29:27;;;;;;;3.88;1.45;;;;;18.70;98301.00;;;;5031827;28;20046;-64
2023/10/14 11:31:58;;;;;;;4.30;1.65;;;;;18.50;98290.00;;;;5032080;28;20048;-64
2023/10/14 11:34:32;;;;;;;4.15;1.65;;;;;18.40;98283.00;;;;5031339;28;20403;-63
2023/10/14 11:36:59;;;;;;;5.22;1.50;;;;;18.60;98290.00;;;;5014649;28;20045;-63
2023/10/14 11:39:28;;;;;;;6.40;1.65;;;;;18.60;98282.00;;;;5031161;28;20128;-63
2023/10/14 11:41:55;;;;;;;3.47;1.42;;;;;18.50;98288.00;;;;5030788;28;20084;-64
2023/10/14 11:44:21;;;;;;;3.53;1.30;;;;;18.30;98290.00;;;;5031706;28;20384;-64
2023/10/14 11:46:50;;;;;;;3.75;1.70;;;;;18.20;98284.00;;;;5030746;28;20049;-65
2023/10/14 11:49:17;;;;;;;4.97;1.73;;;;;18.30;98286.00;;;;5031784;28;20402;-63
2023/10/14 11:51:46;;;;;;;3.90;1.20;;;;;18.60;98283.00;;;;5032028;28;20061;-63
2023/10/14 11:54:15;;;;;;;3.35;1.40;;;;;18.70;98286.00;;;;5031215;28;20053;-64
2023/10/14 11:56:42;;;;;;;5.72;1.50;;;;;18.80;98268.00;;;;5031812;28;20042;-63
2023/10/14 11:59:12;;;;;;;5.40;1.70;;;;;18.70;98288.00;;;;5031723;28;20550;-64
2023/10/14 12:01:38;;;;;;;3.78;1.38;;;;;18.60;98290.00;;;;5035077;28;20099;-63
2023/10/14 12:04:05;;;;;;;5.30;1.13;;;;;18.60;98290.00;;;;5035068;28;20050;-63
2023/10/14 12:06:35;;;;;;;11.75;2.25;;;;;18.40;98288.00;;;;5035577;28;20046;-63
2023/10/14 12:09:05;;;;;;;5.95;1.80;;;;;18.40;98288.00;;;;5035511;28;20041;-63
2023/10/14 12:11:41;;;;;;;3.65;1.33;;;;;18.30;98290.00;;;;5035299;28;20038;-64
2023/10/14 12:14:11;;;;;;;6.32;1.65;;;;;18.40;98299.00;;;;5034981;28;20041;-64
2023/10/14 12:16:40;;;;;;;8.13;1.75;;;;;18.20;98295.00;;;;5034330;28;20107;-64
2023/10/14 12:19:11;;;;;;;6.80;1.50;;;;;18.10;98291.00;;;;5035379;28;20037;-64
2023/10/14 12:21:39;;;;;;;5.30;1.40;;;;;18.30;98288.00;;;;5034320;28;20124;-64
2023/10/14 12:24:09;;;;;;;3.05;1.20;;;;;18.30;98289.00;;;;5033561;28;20224;-63
2023/10/14 12:26:43;;;;;;;5.25;1.35;;;;;18.50;98292.00;;;;5035308;28;20053;-64
2023/10/14 12:29:11;;;;;;;3.72;1.27;;;;;18.70;98306.00;;;;5035181;28;20447;-62
2023/10/14 12:31:41;;;;;;;4.57;1.83;;;;;18.80;98308.00;;;;5034017;28;20367;-63
2023/10/14 12:34:09;;;;;;;3.90;1.50;;;;;18.70;98303.00;;;;5034818;28;20038;-64
2023/10/14 12:36:40;;;;;;;5.07;1.50;;;;;18.80;98316.00;;;;5033793;28;20052;-64
2023/10/14 12:39:33;;;;;;;3.60;1.17;;;;;18.80;98305.00;;;;5033971;28;20121;-63
2023/10/14 12:42:03;;;;;;;4.15;1.20;;;;;18.80;98318.00;;;;5034962;28;20417;-63
2023/10/14 12:44:32;;;;;;;3.03;1.40;;;;;18.90;98320.00;;;;5034654;28;20045;-64
2023/10/14 12:47:10;;;;;;;4.43;1.15;;;;;18.90;98321.00;;;;5033387;28;20053;-63
2023/10/14 12:49:39;;;;;;;6.00;1.75;;;;;18.90;98318.00;;;;5035301;28;20271;-63
2023/10/14 12:52:12;;;;;;;4.00;1.20;;;;;18.90;98321.00;;;;5034524;28;20049;-63
2023/10/14 12:54:39;;;;;;;;;;;;;19.10;98323.00;;;;5034895;28;20414;-63
2023/10/14 12:57:08;;;;;;;5.47;1.65;;;;;19.30;98335.00;;;;5035160;28;19952;-63
2023/10/14 12:59:40;;;;;;;4.18;1.30;;;;;19.30;98331.00;;;;5035360;28;20046;-63
2023/10/14 13:02:09;;;;;;;2.38;1.30;;;;;18.90;98333.00;;;;5035576;28;20060;-63
2023/10/14 13:04:39;;;;;;;5.15;1.20;;;;;18.80;98346.00;;;;5033652;28;20132;-62
2023/10/14 13:07:08;;;;;;;7.90;1.80;;;;;18.80;98346.00;;;;5034326;28;20488;-62
2023/10/14 13:09:37;;;;;;;5.45;1.67;;;;;19.00;98346.00;;;;5033972;28;20465;-63
2023/10/14 13:12:18;;;;;;;6.60;1.45;;;;;19.10;98343.00;;;;5032905;28;20041;-63
2023/10/14 13:14:45;;;;;;;4.78;1.30;;;;;19.30;98362.00;;;;5033616;28;20561;-64
2023/10/14 13:17:12;;;;;;;3.60;1.40;;;;;19.20;98355.00;;;;5035227;28;20068;-64